Springfield, Vermont
Current Conditions -  °F | °C
As of 8:12 PM on Tuesday 27 Jan 2015 (Local Time) from KVSF Reporting Station
Light Snow Light Snow  
Wind Chill: -2°   Ceiling: 1700
Heat Index: 10°   Visibility: 1.2mi
Dew Point:   Wind: 8mph
Humidity: 70%   Direction: 350°N
Pressure: 29.77"   Gusts: NA
Location:  43.3°N, 72.48°W
Report Text: KVSF 280112Z AUTO 35007KT 260V030 1 1/4SM -SN OVC017 M12/M17 A2977 RMK AO2 P0000 T11221167 TSNO
Loading
Personal Weather Stations






























Interactive Weather Map New forecast layout! Learn more

10-Day Weather Forecast

Advertisements
Track Severe Weather on mobile